createdAt,value
2022-11-14T00:02:45.221Z,12.98
2022-11-14T00:05:49.580Z,12.73
2022-11-14T00:08:53.767Z,12.25
2022-11-14T00:11:57.983Z,13.18
2022-11-14T00:15:02.440Z,12.00
2022-11-14T00:18:07.258Z,11.45
2022-11-14T00:21:11.872Z,15.38
2022-11-14T00:24:15.899Z,15.18
2022-11-14T00:27:20.552Z,15.50
2022-11-14T00:30:25.360Z,15.38
2022-11-14T00:33:29.922Z,16.40
2022-11-14T00:36:34.399Z,17.38
2022-11-14T00:39:38.669Z,20.80
2022-11-14T00:42:42.792Z,21.95
2022-11-14T00:45:48.048Z,24.80
2022-11-14T00:48:51.931Z,23.98
2022-11-14T00:51:56.106Z,23.52
2022-11-14T00:55:00.544Z,25.13
2022-11-14T00:58:05.031Z,25.52
2022-11-14T01:01:09.223Z,25.55
2022-11-14T01:04:13.560Z,28.20
2022-11-14T01:07:18.006Z,27.08
2022-11-14T01:10:22.647Z,29.08
2022-11-14T01:13:31.315Z,29.48
2022-11-14T01:16:35.905Z,28.88
2022-11-14T01:19:40.450Z,29.05
2022-11-14T01:22:44.642Z,31.50
2022-11-14T01:25:48.961Z,29.88
2022-11-14T01:28:53.535Z,33.20
2022-11-14T01:31:57.495Z,32.85
2022-11-14T01:35:01.826Z,33.95
2022-11-14T01:38:06.269Z,34.03
2022-11-14T01:41:13.978Z,37.95
2022-11-14T01:44:43.508Z,35.67
2022-11-14T01:47:47.363Z,35.40
2022-11-14T01:50:57.270Z,36.78
2022-11-14T01:54:05.397Z,36.70
2022-11-14T01:57:11.369Z,38.00
2022-11-14T02:00:15.730Z,35.42
2022-11-14T02:03:20.479Z,39.20
2022-11-14T02:06:28.715Z,38.20
2022-11-14T02:09:37.292Z,36.78
2022-11-14T02:12:41.897Z,39.03
2022-11-14T02:15:46.381Z,39.42
2022-11-14T02:18:50.735Z,38.28
2022-11-14T02:21:54.907Z,40.38
2022-11-14T02:24:59.262Z,41.35
2022-11-14T02:28:05.631Z,40.25
2022-11-14T02:31:09.754Z,41.17
2022-11-14T02:34:16.685Z,42.40
2022-11-14T02:37:20.733Z,42.58
2022-11-14T02:40:24.934Z,40.30
2022-11-14T02:43:29.404Z,45.08
2022-11-14T02:46:33.867Z,39.50
2022-11-14T02:49:38.280Z,37.13
2022-11-14T02:52:42.407Z,39.80
2022-11-14T02:55:46.864Z,39.05
2022-11-14T02:58:51.198Z,45.28
2022-11-14T03:01:55.981Z,44.95
2022-11-14T03:05:00.364Z,44.38
2022-11-14T03:08:04.736Z,47.75
2022-11-14T03:11:10.331Z,44.50
2022-11-14T03:14:14.344Z,50.15
2022-11-14T03:17:18.739Z,53.22
2022-11-14T03:20:24.131Z,54.88
2022-11-14T03:23:28.280Z,53.70
2022-11-14T03:26:32.640Z,54.92
2022-11-14T03:29:37.231Z,54.42
2022-11-14T03:32:41.272Z,53.53
2022-11-14T03:35:45.705Z,58.88
2022-11-14T03:38:50.040Z,52.33
2022-11-14T03:41:54.428Z,54.20
2022-11-14T03:44:58.694Z,52.53
2022-11-14T03:48:03.060Z,57.13
2022-11-14T03:51:08.717Z,56.72
2022-11-14T03:54:12.629Z,61.53
2022-11-14T03:57:17.321Z,55.55
2022-11-14T04:00:21.731Z,59.17
2022-11-14T04:03:25.953Z,60.25
2022-11-14T04:06:30.814Z,57.45
2022-11-14T04:09:35.187Z,63.05
2022-11-14T04:12:39.164Z,59.05
2022-11-14T04:15:43.696Z,60.03
2022-11-14T04:18:48.088Z,57.95
2022-11-14T04:21:52.482Z,59.10
2022-11-14T04:24:56.993Z,58.85
2022-11-14T04:28:01.151Z,57.97
2022-11-14T04:31:05.351Z,60.88
2022-11-14T04:34:09.768Z,54.55
2022-11-14T04:37:14.261Z,53.50
2022-11-14T04:40:18.695Z,52.72
2022-11-14T04:43:23.006Z,55.53
2022-11-14T04:46:27.480Z,53.85
2022-11-14T04:49:31.565Z,52.92
2022-11-14T04:52:35.927Z,51.28
2022-11-14T04:55:40.466Z,53.08
2022-11-14T04:58:44.909Z,54.33
2022-11-14T05:01:49.273Z,54.17
2022-11-14T05:04:53.468Z,49.83
2022-11-14T05:07:58.087Z,50.97
2022-11-14T05:11:02.119Z,50.85
2022-11-14T05:14:06.354Z,54.40
2022-11-14T05:17:10.684Z,57.35
2022-11-14T05:20:15.123Z,51.08
2022-11-14T05:23:21.981Z,50.50
2022-11-14T05:26:26.516Z,53.80
2022-11-14T05:29:30.962Z,53.75
2022-11-14T05:32:35.194Z,51.08
2022-11-14T05:35:39.277Z,51.53
2022-11-14T05:38:44.788Z,53.08
2022-11-14T05:41:49.166Z,49.85
2022-11-14T05:44:53.582Z,56.53
2022-11-14T05:47:57.858Z,50.67
2022-11-14T05:51:04.514Z,52.58
2022-11-14T05:54:08.564Z,53.10
2022-11-14T05:57:13.174Z,47.75
2022-11-14T06:00:17.866Z,50.13
2022-11-14T06:03:22.389Z,52.28
2022-11-14T06:06:26.808Z,45.60
2022-11-14T06:09:30.983Z,50.22
2022-11-14T06:12:35.506Z,53.92
2022-11-14T06:15:39.642Z,58.30
2022-11-14T06:18:44.660Z,55.20
2022-11-14T06:21:48.851Z,52.60
2022-11-14T06:24:53.108Z,52.35
2022-11-14T06:27:59.068Z,54.13
2022-11-14T06:31:04.430Z,54.92
2022-11-14T06:34:08.753Z,48.08
2022-11-14T06:37:13.275Z,51.90
2022-11-14T06:40:17.655Z,53.63
2022-11-14T06:43:22.051Z,49.83
2022-11-14T06:46:26.373Z,50.28
2022-11-14T06:49:30.948Z,52.58
2022-11-14T06:52:35.580Z,52.30
2022-11-14T06:55:39.984Z,46.35
2022-11-14T06:58:46.755Z,46.83
2022-11-14T07:01:51.168Z,45.00
2022-11-14T07:04:55.588Z,45.03
2022-11-14T07:08:00.009Z,44.53
2022-11-14T07:11:06.690Z,41.53
2022-11-14T07:14:11.000Z,43.45
2022-11-14T07:17:15.353Z,40.90
2022-11-14T07:20:19.811Z,37.72
2022-11-14T07:23:24.436Z,40.53
2022-11-14T07:26:29.063Z,39.10
2022-11-14T07:29:33.768Z,41.10
2022-11-14T07:32:38.435Z,40.50
2022-11-14T07:35:42.710Z,38.58
2022-11-14T07:38:46.917Z,36.85
2022-11-14T07:41:51.276Z,37.78
2022-11-14T07:44:55.779Z,35.38
2022-11-14T07:48:01.962Z,38.00
2022-11-14T07:51:14.423Z,33.95
2022-11-14T07:54:18.421Z,37.30
2022-11-14T07:57:22.639Z,34.83
2022-11-14T08:00:27.006Z,30.10
2022-11-14T08:03:31.602Z,31.40
2022-11-14T08:06:35.728Z,32.13
2022-11-14T08:09:40.131Z,33.53
2022-11-14T08:12:45.191Z,31.95
2022-11-14T08:15:49.386Z,32.13
2022-11-14T08:18:53.623Z,30.85
2022-11-14T08:21:57.997Z,32.25
2022-11-14T08:25:02.758Z,35.33
2022-11-14T08:28:07.437Z,31.23
2022-11-14T08:31:13.257Z,29.48
2022-11-14T08:34:17.257Z,30.38
2022-11-14T08:37:21.730Z,28.70
2022-11-14T08:40:26.316Z,29.50
2022-11-14T08:43:31.426Z,28.23
2022-11-14T08:46:35.772Z,29.88
2022-11-14T08:49:39.963Z,31.63
2022-11-14T08:52:48.774Z,29.38
2022-11-14T08:55:53.011Z,29.95
2022-11-14T08:58:57.247Z,30.17
2022-11-14T09:02:01.720Z,29.77
2022-11-14T09:05:06.402Z,30.40
2022-11-14T09:08:10.340Z,31.17
2022-11-14T09:11:19.122Z,27.77
2022-11-14T09:14:23.508Z,28.48
2022-11-14T09:17:28.027Z,30.20
2022-11-14T09:20:36.155Z,29.25
2022-11-14T09:23:42.973Z,28.10
2022-11-14T09:26:54.937Z,26.48
2022-11-14T09:33:11.142Z,26.90
2022-11-14T09:36:17.014Z,25.08
2022-11-14T09:39:21.311Z,28.52
2022-11-14T09:42:58.343Z,23.95
2022-11-14T09:46:03.322Z,26.55
2022-11-14T09:49:35.220Z,24.73
2022-11-14T09:52:47.439Z,24.88
2022-11-14T09:55:51.872Z,26.38
2022-11-14T09:58:56.499Z,24.52
2022-11-14T10:02:20.319Z,25.20
2022-11-14T10:05:48.191Z,23.88
2022-11-14T10:09:30.862Z,25.05
2022-11-14T10:12:43.211Z,24.33
2022-11-14T10:16:13.752Z,23.40
2022-11-14T10:19:40.028Z,21.65
2022-11-14T10:22:55.132Z,21.85
2022-11-14T10:26:19.858Z,21.60
2022-11-14T10:29:45.914Z,20.38
2022-11-14T10:33:08.730Z,23.15
2022-11-14T10:36:35.009Z,22.40
2022-11-14T10:39:49.734Z,23.00
2022-11-14T10:43:06.463Z,22.98
2022-11-14T10:46:33.923Z,20.73
2022-11-14T10:49:38.827Z,23.48
2022-11-14T10:52:44.264Z,20.75
2022-11-14T10:56:03.740Z,21.38
2022-11-14T10:59:09.191Z,19.73
2022-11-14T11:02:13.921Z,20.23
2022-11-14T11:05:20.291Z,21.48
2022-11-14T11:08:44.437Z,20.85
2022-11-14T11:11:55.163Z,19.73
2022-11-14T11:15:21.720Z,20.98
2022-11-14T11:18:29.112Z,20.23
2022-11-14T11:21:50.848Z,21.42
2022-11-14T11:24:55.358Z,19.02
2022-11-14T11:28:17.463Z,18.98
2022-11-14T11:31:21.695Z,19.95
2022-11-14T11:34:32.615Z,17.55
2022-11-14T11:37:48.895Z,17.05
2022-11-14T11:40:59.029Z,18.38
2022-11-14T11:44:12.872Z,20.30
2022-11-14T11:47:18.680Z,19.27
2022-11-14T11:50:24.178Z,20.10
2022-11-14T11:53:34.561Z,19.30
2022-11-14T11:56:39.987Z,17.48
2022-11-14T11:59:48.806Z,18.27
2022-11-14T12:02:54.481Z,18.33
2022-11-14T12:06:14.042Z,20.83
2022-11-14T12:10:03.225Z,18.25
2022-11-14T12:13:15.968Z,17.92
2022-11-14T12:16:51.180Z,16.77
2022-11-14T12:20:03.056Z,16.55
2022-11-14T12:23:38.916Z,16.08
2022-11-14T12:27:40.013Z,17.38
2022-11-14T12:30:48.283Z,15.73
2022-11-14T12:33:59.068Z,16.45
2022-11-14T12:37:10.950Z,15.98
2022-11-14T12:40:32.463Z,16.37
2022-11-14T12:43:39.739Z,16.73
2022-11-14T12:47:13.623Z,16.15
2022-11-14T12:50:30.938Z,18.52
2022-11-14T12:53:38.136Z,16.23
2022-11-14T12:56:58.759Z,14.50
2022-11-14T13:00:07.465Z,13.73
2022-11-14T13:03:35.342Z,15.90
2022-11-14T13:06:59.321Z,15.07
2022-11-14T13:10:33.100Z,15.18
2022-11-14T13:14:20.071Z,15.70
2022-11-14T13:17:45.773Z,16.23
2022-11-14T13:21:21.708Z,16.05
2022-11-14T13:24:25.872Z,18.02
2022-11-14T13:28:00.104Z,17.77
2022-11-14T13:31:14.719Z,20.75
2022-11-14T13:34:46.307Z,19.25
2022-11-14T13:38:32.538Z,19.00
2022-11-14T13:42:00.659Z,16.75
2022-11-14T13:45:37.034Z,19.23
2022-11-14T13:48:47.473Z,19.08
2022-11-14T13:51:53.798Z,18.30
2022-11-14T13:54:59.080Z,20.00
2022-11-14T13:58:34.814Z,21.48
2022-11-14T14:02:08.012Z,19.75
2022-11-14T14:05:28.009Z,19.38
2022-11-14T14:09:08.708Z,20.10
2022-11-14T14:12:44.526Z,22.48
2022-11-14T14:15:48.871Z,21.80
2022-11-14T14:19:07.789Z,21.20
2022-11-14T14:22:40.353Z,19.92
2022-11-14T14:26:22.808Z,21.30
2022-11-14T14:29:43.997Z,28.67
2022-11-14T14:33:09.503Z,30.00
2022-11-14T14:36:22.526Z,31.90
2022-11-14T14:39:28.652Z,31.55
2022-11-14T14:42:40.839Z,30.50
2022-11-14T14:45:49.026Z,31.15
2022-11-14T14:48:53.708Z,32.10
2022-11-14T14:51:58.914Z,34.70
2022-11-14T14:55:06.729Z,29.75
2022-11-14T14:58:23.457Z,32.33
2022-11-14T15:01:34.143Z,30.38
2022-11-14T15:04:40.071Z,31.65
2022-11-14T15:07:46.316Z,31.67
2022-11-14T15:10:52.555Z,29.20
2022-11-14T15:13:58.315Z,29.63
2022-11-14T15:17:04.536Z,28.45
2022-11-14T15:20:22.828Z,31.02
2022-11-14T15:23:26.961Z,28.33
2022-11-14T15:26:31.608Z,31.63
2022-11-14T15:29:35.881Z,30.17
2022-11-14T15:32:50.122Z,30.48
2022-11-14T15:36:17.694Z,29.77
2022-11-14T15:39:27.785Z,30.98
2022-11-14T15:42:31.803Z,28.77
2022-11-14T15:45:40.390Z,29.60
2022-11-14T15:48:44.789Z,30.55
2022-11-14T15:51:49.095Z,29.98
2022-11-14T15:54:53.384Z,30.50
2022-11-14T15:58:21.421Z,30.13
2022-11-14T16:01:27.970Z,31.50
2022-11-14T16:04:35.903Z,30.48
2022-11-14T16:07:40.412Z,34.63
2022-11-14T16:10:44.952Z,33.00
2022-11-14T16:13:49.360Z,33.85
2022-11-14T16:16:53.952Z,36.00
2022-11-14T16:19:59.008Z,36.67
2022-11-14T16:23:03.270Z,34.88
2022-11-14T16:26:07.337Z,36.33
2022-11-14T16:29:12.117Z,38.45
2022-11-14T16:32:16.436Z,39.08
2022-11-14T16:35:26.186Z,41.30
2022-11-14T16:38:30.791Z,39.53
2022-11-14T16:41:35.045Z,37.03
2022-11-14T16:44:43.920Z,38.35
2022-11-14T16:47:51.002Z,37.38
2022-11-14T16:50:56.965Z,43.70
2022-11-14T16:54:01.556Z,38.65
2022-11-14T16:57:05.773Z,44.10
2022-11-14T17:00:12.726Z,40.88
2022-11-14T17:03:18.108Z,38.83
2022-11-14T17:06:22.215Z,39.58
2022-11-14T17:09:26.671Z,40.72
2022-11-14T17:12:32.177Z,38.60
2022-11-14T17:15:36.681Z,37.58
2022-11-14T17:18:42.216Z,39.05
2022-11-14T17:21:46.393Z,40.50
2022-11-14T17:24:50.680Z,42.17
2022-11-14T17:27:55.038Z,41.67
2022-11-14T17:30:59.492Z,44.00
2022-11-14T17:34:03.711Z,39.17
2022-11-14T17:37:07.937Z,42.85
2022-11-14T17:40:15.488Z,40.05
2022-11-14T17:43:20.256Z,40.15
2022-11-14T17:46:24.644Z,37.30
2022-11-14T17:49:29.006Z,41.90
2022-11-14T17:52:33.170Z,37.65
2022-11-14T17:55:38.547Z,44.47
2022-11-14T17:58:44.014Z,38.20
2022-11-14T18:01:48.421Z,42.15
2022-11-14T18:04:52.552Z,44.67
2022-11-14T18:07:56.807Z,41.20
2022-11-14T18:11:02.157Z,38.35
2022-11-14T18:14:06.538Z,38.38
2022-11-14T18:17:13.432Z,38.90
2022-11-14T18:20:17.954Z,37.25
2022-11-14T18:23:22.336Z,37.05
2022-11-14T18:26:28.629Z,35.55
2022-11-14T18:29:32.580Z,36.15
2022-11-14T18:32:37.072Z,37.00
2022-11-14T18:35:41.303Z,42.75
2022-11-14T18:38:46.037Z,38.38
2022-11-14T18:41:50.447Z,32.47
2022-11-14T18:44:54.860Z,32.28
2022-11-14T18:47:59.228Z,33.45
2022-11-14T18:51:06.822Z,31.95
2022-11-14T18:54:18.798Z,32.67
2022-11-14T18:57:23.091Z,36.60
2022-11-14T19:00:27.654Z,33.67
2022-11-14T19:03:32.354Z,36.03
2022-11-14T19:06:39.010Z,33.60
2022-11-14T19:09:44.471Z,35.25
2022-11-14T19:12:48.891Z,35.35
2022-11-14T19:15:52.900Z,34.03
2022-11-14T19:18:58.272Z,34.70
2022-11-14T19:22:03.965Z,32.97
2022-11-14T19:25:09.254Z,33.03
2022-11-14T19:28:13.430Z,30.95
2022-11-14T19:31:18.416Z,28.35
2022-11-14T19:34:22.682Z,28.23
2022-11-14T19:37:27.957Z,28.85
2022-11-14T19:40:32.040Z,28.75
2022-11-14T19:43:40.189Z,28.60
2022-11-14T19:46:47.830Z,27.38
2022-11-14T19:49:52.336Z,27.10
2022-11-14T19:52:57.204Z,29.70
2022-11-14T19:56:03.797Z,26.58
2022-11-14T19:59:13.999Z,27.30
2022-11-14T20:02:20.059Z,27.27
2022-11-14T20:05:24.217Z,25.00
2022-11-14T20:08:28.684Z,26.48
2022-11-14T20:11:33.938Z,25.00
2022-11-14T20:14:38.139Z,24.67
2022-11-14T20:17:42.787Z,24.08
2022-11-14T20:20:46.999Z,25.67
2022-11-14T20:23:51.779Z,25.45
2022-11-14T20:26:56.156Z,24.52
2022-11-14T20:30:00.855Z,24.88
2022-11-14T20:33:05.629Z,24.05
2022-11-14T20:36:12.944Z,25.92
2022-11-14T20:39:17.375Z,24.13
2022-11-14T20:42:21.775Z,24.55
2022-11-14T20:45:26.788Z,22.52
2022-11-14T20:48:33.731Z,26.73
2022-11-14T20:51:38.854Z,27.23
2022-11-14T20:54:43.512Z,27.30
2022-11-14T20:57:47.928Z,27.52
2022-11-14T21:00:52.843Z,24.98
2022-11-14T21:03:57.214Z,25.73
2022-11-14T21:07:01.847Z,26.85
2022-11-14T21:10:25.352Z,26.17
2022-11-14T21:13:48.670Z,25.85
2022-11-14T21:16:53.097Z,26.70
2022-11-14T21:19:58.059Z,29.42
2022-11-14T21:23:02.342Z,27.63
2022-11-14T21:26:07.752Z,26.80
2022-11-14T21:29:14.241Z,29.55
2022-11-14T21:32:18.422Z,29.02
2022-11-14T21:35:22.919Z,27.83
2022-11-14T21:38:27.585Z,29.48
2022-11-14T21:41:32.258Z,25.17
2022-11-14T21:44:36.814Z,26.73
2022-11-14T21:47:40.857Z,25.40
2022-11-14T21:50:45.239Z,27.88
2022-11-14T21:53:53.856Z,25.33
2022-11-14T21:56:58.523Z,25.08
2022-11-14T22:00:03.027Z,25.05
2022-11-14T22:03:29.920Z,25.65
2022-11-14T22:06:34.274Z,26.70
2022-11-14T22:09:44.033Z,26.55
2022-11-14T22:12:49.461Z,26.35
2022-11-14T22:15:53.886Z,25.17
2022-11-14T22:19:04.559Z,25.15
2022-11-14T22:22:09.303Z,25.90
2022-11-14T22:25:13.885Z,23.35
2022-11-14T22:28:18.094Z,23.10
2022-11-14T22:31:24.387Z,24.00
2022-11-14T22:34:28.920Z,23.52
2022-11-14T22:37:33.391Z,21.00
2022-11-14T22:40:38.271Z,22.00
2022-11-14T22:43:43.139Z,23.83
2022-11-14T22:46:47.660Z,24.77
2022-11-14T22:49:51.686Z,23.80
2022-11-14T22:52:56.218Z,21.80
2022-11-14T22:56:01.579Z,21.33
2022-11-14T22:59:06.010Z,22.30
2022-11-14T23:02:10.508Z,21.90
2022-11-14T23:05:14.851Z,22.88
2022-11-14T23:08:20.637Z,26.20
2022-11-14T23:11:27.591Z,27.05
2022-11-14T23:14:31.928Z,25.65
2022-11-14T23:17:36.129Z,28.15
2022-11-14T23:20:40.358Z,27.20
2022-11-14T23:23:44.956Z,26.52
2022-11-14T23:26:49.179Z,28.55
2022-11-14T23:29:53.392Z,34.67
2022-11-14T23:32:57.544Z,32.05
2022-11-14T23:36:02.130Z,33.05
2022-11-14T23:39:06.157Z,36.92
2022-11-14T23:42:10.750Z,34.88
2022-11-14T23:45:14.981Z,32.17
2022-11-14T23:48:20.634Z,33.13
2022-11-14T23:51:24.755Z,33.33
2022-11-14T23:54:29.227Z,33.05
2022-11-14T23:57:33.590Z,34.33
